Time,TemperatureF,DewpointF,PressureIn,WindDirection,WindDirectionDegrees,WindSpeedMPH,WindSpeedGustMPH,Humidity,HourlyPrecipIn,Conditions,Clouds,dailyrainin,SoftwareType,DateUTC
2013-06-29 00:08:00,64.1,62.9,29.59,WSW,240,2.0,2.0,96,0.00,,,0.00,WUHU216DAVISVP2,2013-06-29 04:08:00,
2013-06-29 00:09:00,64.1,62.9,29.59,WSW,238,1.0,2.0,96,0.00,,,0.00,WUHU216DAVISVP2,2013-06-29 04:09:00,
2013-06-29 00:14:00,64.0,62.8,29.59,SW,233,1.0,2.0,96,0.00,,,0.00,WUHU216DAVISVP2,2013-06-29 04:14:00,
2013-06-29 00:30:00,63.7,62.5,29.59,WSW,238,1.0,2.0,96,0.00,,,0.00,WUHU216DAVISVP2,2013-06-29 04:30:00,
2013-06-29 00:35:00,63.6,62.4,29.58,SW,235,1.0,2.0,96,0.00,,,0.00,WUHU216DAVISVP2,2013-06-29 04:35:00,
2013-06-29 00:52:00,63.5,62.6,29.58,WSW,253,0.0,2.0,97,0.00,,,0.00,WUHU216DAVISVP2,2013-06-29 04:52:00,
2013-06-29 00:57:00,63.6,62.7,29.58,WSW,253,1.0,2.0,97,0.00,,,0.00,WUHU216DAVISVP2,2013-06-29 04:57:00,
2013-06-29 01:14:00,63.2,62.3,29.58,SW,236,0.0,1.0,97,0.00,,,0.00,WUHU216DAVISVP2,2013-06-29 05:14:00,
2013-06-29 01:19:00,63.1,62.2,29.57,SW,236,0.0,0.0,97,0.00,,,0.00,WUHU216DAVISVP2,2013-06-29 05:19:00,
2013-06-29 01:24:00,63.0,62.1,29.57,SW,236,0.0,0.0,97,0.00,,,0.00,WUHU216DAVISVP2,2013-06-29 05:24:00,
2013-06-29 01:35:00,63.2,62.3,29.57,WSW,238,0.0,0.0,97,0.00,,,0.00,WUHU216DAVISVP2,2013-06-29 05:35:00,
2013-06-29 01:40:00,63.0,62.1,29.57,SW,236,0.0,0.0,97,0.00,,,0.00,WUHU216DAVISVP2,2013-06-29 05:40:00,
2013-06-29 01:45:00,62.9,62.0,29.57,SW,236,0.0,0.0,97,0.00,,,0.00,WUHU216DAVISVP2,2013-06-29 05:45:00,
2013-06-29 01:57:00,62.7,61.8,29.56,SW,236,0.0,0.0,97,0.00,,,0.00,WUHU216DAVISVP2,2013-06-29 05:57:00,
2013-06-29 02:02:00,62.7,61.8,29.57,SW,236,0.0,0.0,97,0.00,,,0.00,WUHU216DAVISVP2,2013-06-29 06:02:00,
2013-06-29 02:19:00,62.7,61.8,29.57,WSW,256,0.0,1.0,97,0.00,,,0.00,WUHU216DAVISVP2,2013-06-29 06:19:00,
2013-06-29 02:24:00,62.7,61.8,29.57,WSW,255,0.0,1.0,97,0.00,,,0.00,WUHU216DAVISVP2,2013-06-29 06:24:00,
2013-06-29 02:29:00,62.6,61.7,29.57,WSW,256,0.0,1.0,97,0.00,,,0.00,WUHU216DAVISVP2,2013-06-29 06:29:00,
2013-06-29 02:41:00,62.8,62.2,29.57,WSW,238,0.0,1.0,98,0.00,,,0.00,WUHU216DAVISVP2,2013-06-29 06:41:00,
2013-06-29 02:46:00,62.6,62.0,29.57,WSW,250,0.0,1.0,98,0.00,,,0.00,WUHU216DAVISVP2,2013-06-29 06:46:00,
2013-06-29 02:51:00,62.7,62.1,29.57,West,277,0.0,1.0,98,0.00,,,0.00,WUHU216DAVISVP2,2013-06-29 06:51:00,
2013-06-29 03:03:00,62.9,62.3,29.56,WSW,257,0.0,1.0,98,0.00,,,0.00,WUHU216DAVISVP2,2013-06-29 07:03:00,
2013-06-29 03:08:00,62.9,62.3,29.56,WSW,257,0.0,1.0,98,0.00,,,0.00,WUHU216DAVISVP2,2013-06-29 07:08:00,
2013-06-29 03:13:00,63.0,62.4,29.56,West,263,0.0,1.0,98,0.00,,,0.00,WUHU216DAVISVP2,2013-06-29 07:13:00,
2013-06-29 03:25:00,63.2,62.6,29.56,West,276,0.0,2.0,98,0.00,,,0.00,WUHU216DAVISVP2,2013-06-29 07:25:00,
2013-06-29 03:30:00,63.2,62.6,29.56,WSW,250,0.0,2.0,98,0.00,,,0.00,WUHU216DAVISVP2,2013-06-29 07:30:00,
2013-06-29 03:47:00,62.8,62.2,29.56,WSW,239,0.0,1.0,98,0.00,,,0.00,WUHU216DAVISVP2,2013-06-29 07:47:00,
2013-06-29 03:52:00,62.5,61.6,29.57,WSW,239,0.0,1.0,97,0.00,,,0.00,WUHU216DAVISVP2,2013-06-29 07:52:00,
2013-06-29 04:09:00,62.4,61.8,29.56,WNW,289,0.0,1.0,98,0.00,,,0.00,WUHU216DAVISVP2,2013-06-29 08:09:00,
2013-06-29 04:14:00,62.4,61.8,29.56,West,280,0.0,1.0,98,0.00,,,0.00,WUHU216DAVISVP2,2013-06-29 08:14:00,
2013-06-29 04:19:00,62.2,61.6,29.56,West,280,0.0,1.0,98,0.00,,,0.00,WUHU216DAVISVP2,2013-06-29 08:19:00,
2013-06-29 04:31:00,61.9,61.3,29.56,West,281,0.0,0.0,98,0.00,,,0.00,WUHU216DAVISVP2,2013-06-29 08:31:00,
2013-06-29 04:36:00,62.0,61.4,29.56,SW,226,0.0,1.0,98,0.00,,,0.00,WUHU216DAVISVP2,2013-06-29 08:36:00,
2013-06-29 04:53:00,61.8,61.2,29.56,WSW,245,0.0,0.0,98,0.00,,,0.00,WUHU216DAVISVP2,2013-06-29 08:53:00,
2013-06-29 04:58:00,61.7,61.1,29.56,West,262,0.0,0.0,98,0.00,,,0.00,WUHU216DAVISVP2,2013-06-29 08:58:00,
2013-06-29 05:15:00,61.8,61.2,29.56,West,262,0.0,0.0,98,0.00,,,0.00,WUHU216DAVISVP2,2013-06-29 09:15:00,
2013-06-29 05:20:00,61.8,61.2,29.56,West,260,0.0,0.0,98,0.00,,,0.00,WUHU216DAVISVP2,2013-06-29 09:20:00,
2013-06-29 05:24:00,61.6,61.0,29.56,West,260,0.0,0.0,98,0.00,,,0.00,WUHU216DAVISVP2,2013-06-29 09:24:00,
2013-06-29 05:36:00,61.7,61.1,29.57,West,260,0.0,0.0,98,0.00,,,0.00,WUHU216DAVISVP2,2013-06-29 09:36:00,
2013-06-29 05:41:00,61.3,60.7,29.56,West,260,0.0,0.0,98,0.00,,,0.00,WUHU216DAVISVP2,2013-06-29 09:41:00,
2013-06-29 05:46:00,61.1,60.5,29.57,West,260,0.0,0.0,98,0.01,,,0.01,WUHU216DAVISVP2,2013-06-29 09:46:00,
2013-06-29 05:58:00,61.2,60.6,29.57,West,260,0.0,0.0,98,0.01,,,0.01,WUHU216DAVISVP2,2013-06-29 09:58:00,
2013-06-29 06:03:00,61.1,60.5,29.57,WSW,250,0.0,0.0,98,0.01,,,0.01,WUHU216DAVISVP2,2013-06-29 10:03:00,
2013-06-29 06:08:00,60.9,60.3,29.57,WSW,250,0.0,0.0,98,0.01,,,0.01,WUHU216DAVISVP2,2013-06-29 10:08:00,
2013-06-29 06:20:00,60.7,60.1,29.58,WSW,250,0.0,0.0,98,0.01,,,0.01,WUHU216DAVISVP2,2013-06-29 10:20:00,
2013-06-29 06:25:00,60.5,59.9,29.58,WSW,251,0.0,0.0,98,0.01,,,0.01,WUHU216DAVISVP2,2013-06-29 10:25:00,
2013-06-29 06:42:00,61.4,60.8,29.58,WSW,255,0.0,1.0,98,0.01,,,0.01,WUHU216DAVISVP2,2013-06-29 10:42:00,
2013-06-29 06:47:00,61.6,61.0,29.58,West,269,0.0,1.0,98,0.00,,,0.01,WUHU216DAVISVP2,2013-06-29 10:47:00,
2013-06-29 07:04:00,62.2,61.9,29.58,SW,225,0.0,1.0,99,0.00,,,0.01,WUHU216DAVISVP2,2013-06-29 11:04:00,
2013-06-29 07:09:00,62.3,62.0,29.58,WSW,253,0.0,1.0,99,0.00,,,0.01,WUHU216DAVISVP2,2013-06-29 11:09:00,
2013-06-29 07:14:00,62.6,62.3,29.58,West,260,0.0,1.0,99,0.00,,,0.01,WUHU216DAVISVP2,2013-06-29 11:14:00,
2013-06-29 07:26:00,62.8,62.5,29.58,WNW,297,0.0,1.0,99,0.00,,,0.01,WUHU216DAVISVP2,2013-06-29 11:26:00,
2013-06-29 07:31:00,62.8,62.5,29.58,NNW,328,1.0,2.0,99,0.00,,,0.01,WUHU216DAVISVP2,2013-06-29 11:31:00,
2013-06-29 07:48:00,63.1,62.8,29.58,WNW,297,0.0,3.0,99,0.00,,,0.01,WUHU216DAVISVP2,2013-06-29 11:48:00,
2013-06-29 07:53:00,63.1,62.5,29.58,NW,306,2.0,3.0,98,0.00,,,0.01,WUHU216DAVISVP2,2013-06-29 11:53:00,
2013-06-29 07:58:00,63.0,62.4,29.58,WNW,290,0.0,3.0,98,0.00,,,0.01,WUHU216DAVISVP2,2013-06-29 11:58:00,
2013-06-29 08:10:00,63.4,62.8,29.58,NNW,336,0.0,3.0,98,0.00,,,0.01,WUHU216DAVISVP2,2013-06-29 12:10:00,
2013-06-29 08:15:00,63.6,63.0,29.58,NNW,328,0.0,3.0,98,0.00,,,0.01,WUHU216DAVISVP2,2013-06-29 12:15:00,
2013-06-29 08:20:00,63.5,62.9,29.58,NNW,328,2.0,3.0,98,0.00,,,0.01,WUHU216DAVISVP2,2013-06-29 12:20:00,
2013-06-29 08:32:00,64.3,63.7,29.59,NNW,333,1.0,3.0,98,0.00,,,0.01,WUHU216DAVISVP2,2013-06-29 12:32:00,
2013-06-29 08:37:00,64.5,63.9,29.59,NNE,30,1.0,3.0,98,0.00,,,0.01,WUHU216DAVISVP2,2013-06-29 12:37:00,
2013-06-29 08:42:00,65.1,64.5,29.59,NNW,330,3.0,4.0,98,0.00,,,0.01,WUHU216DAVISVP2,2013-06-29 12:42:00,
2013-06-29 08:54:00,65.0,64.1,29.59,WNW,296,4.0,5.0,97,0.00,,,0.01,WUHU216DAVISVP2,2013-06-29 12:54:00,
2013-06-29 08:59:00,65.1,63.9,29.59,WNW,297,2.0,5.0,96,0.00,,,0.01,WUHU216DAVISVP2,2013-06-29 12:59:00,
2013-06-29 09:15:00,66.3,64.8,29.59,West,277,3.0,6.0,95,0.00,,,0.01,WUHU216DAVISVP2,2013-06-29 13:15:00,
2013-06-29 09:20:00,66.4,64.6,29.59,NNW,335,1.0,6.0,94,0.00,,,0.01,WUHU216DAVISVP2,2013-06-29 13:20:00,
2013-06-29 09:37:00,66.6,64.5,29.60,NW,325,3.0,5.0,93,0.00,,,0.01,WUHU216DAVISVP2,2013-06-29 13:37:00,
2013-06-29 09:42:00,66.5,64.1,29.60,NW,318,1.0,5.0,92,0.00,,,0.01,WUHU216DAVISVP2,2013-06-29 13:42:00,
2013-06-29 09:59:00,66.8,64.4,29.60,WNW,290,5.0,6.0,92,0.00,,,0.01,WUHU216DAVISVP2,2013-06-29 13:59:00,
2013-06-29 10:04:00,66.9,64.2,29.60,NW,305,4.0,7.0,91,0.00,,,0.01,WUHU216DAVISVP2,2013-06-29 14:04:00,
2013-06-29 10:09:00,66.7,64.0,29.60,NNW,346,5.0,7.0,91,0.00,,,0.01,WUHU216DAVISVP2,2013-06-29 14:09:00,
2013-06-29 10:21:00,66.8,64.1,29.60,WNW,302,2.0,7.0,91,0.00,,,0.01,WUHU216DAVISVP2,2013-06-29 14:21:00,
2013-06-29 10:26:00,67.0,63.9,29.60,WNW,293,2.0,7.0,90,0.00,,,0.01,WUHU216DAVISVP2,2013-06-29 14:26:00,
2013-06-29 10:43:00,67.5,63.8,29.60,NW,308,1.0,6.0,88,0.00,,,0.01,WUHU216DAVISVP2,2013-06-29 14:43:00,
2013-06-29 10:48:00,67.6,63.9,29.59,NW,312,1.0,5.0,88,0.00,,,0.01,WUHU216DAVISVP2,2013-06-29 14:48:00,
2013-06-29 11:05:00,67.8,63.5,29.60,NW,312,2.0,6.0,86,0.00,,,0.01,WUHU216DAVISVP2,2013-06-29 15:05:00,
2013-06-29 11:10:00,68.0,64.3,29.60,North,356,3.0,5.0,88,0.00,,,0.01,WUHU216DAVISVP2,2013-06-29 15:10:00,
2013-06-29 11:15:00,68.3,64.3,29.60,WNW,300,0.0,5.0,87,0.00,,,0.01,WUHU216DAVISVP2,2013-06-29 15:15:00,
2013-06-29 11:27:00,69.5,65.1,29.60,NNW,338,3.0,5.0,86,0.00,,,0.01,WUHU216DAVISVP2,2013-06-29 15:27:00,
2013-06-29 11:32:00,69.5,64.5,29.60,NW,313,0.0,5.0,84,0.00,,,0.01,WUHU216DAVISVP2,2013-06-29 15:32:00,
2013-06-29 11:37:00,69.6,64.6,29.60,North,356,2.0,5.0,84,0.00,,,0.01,WUHU216DAVISVP2,2013-06-29 15:37:00,
2013-06-29 11:49:00,70.1,65.4,29.60,NNE,20,2.0,7.0,85,0.00,,,0.01,WUHU216DAVISVP2,2013-06-29 15:49:00,
2013-06-29 11:54:00,70.3,64.6,29.60,West,271,1.0,7.0,82,0.00,,,0.01,WUHU216DAVISVP2,2013-06-29 15:54:00,
2013-06-29 12:11:00,71.4,65.7,29.60,North,360,3.0,4.0,82,0.00,,,0.01,WUHU216DAVISVP2,2013-06-29 16:11:00,
2013-06-29 12:16:00,71.3,65.2,29.60,NNE,27,5.0,5.0,81,0.00,,,0.01,WUHU216DAVISVP2,2013-06-29 16:16:00,
2013-06-29 12:21:00,71.1,65.0,29.60,NNE,27,0.0,5.0,81,0.00,,,0.01,WUHU216DAVISVP2,2013-06-29 16:21:00,
2013-06-29 12:33:00,71.1,65.3,29.60,NNW,335,2.0,5.0,82,0.00,,,0.01,WUHU216DAVISVP2,2013-06-29 16:33:00,
2013-06-29 12:38:00,70.9,65.1,29.60,NW,312,1.0,4.0,82,0.00,,,0.01,WUHU216DAVISVP2,2013-06-29 16:38:00,
2013-06-29 12:55:00,71.0,66.3,29.60,NW,326,2.0,6.0,85,0.00,,,0.01,WUHU216DAVISVP2,2013-06-29 16:55:00,
2013-06-29 13:00:00,71.2,66.1,29.60,NW,304,6.0,7.0,84,0.00,,,0.01,WUHU216DAVISVP2,2013-06-29 17:00:00,
2013-06-29 13:05:00,71.1,66.4,29.60,NW,308,1.0,7.0,85,0.00,,,0.01,WUHU216DAVISVP2,2013-06-29 17:05:00,
2013-06-29 13:16:00,71.1,66.0,29.60,NW,323,3.0,7.0,84,0.00,,,0.01,WUHU216DAVISVP2,2013-06-29 17:16:00,
2013-06-29 13:21:00,71.1,66.0,29.60,NW,321,3.0,5.0,84,0.00,,,0.01,WUHU216DAVISVP2,2013-06-29 17:21:00,
2013-06-29 13:26:00,71.2,66.1,29.60,West,271,0.0,6.0,84,0.00,,,0.01,WUHU216DAVISVP2,2013-06-29 17:26:00,
2013-06-29 13:38:00,71.5,66.1,29.60,WNW,303,2.0,8.0,83,0.00,,,0.01,WUHU216DAVISVP2,2013-06-29 17:38:00,
2013-06-29 13:43:00,71.5,65.7,29.60,WNW,288,3.0,8.0,82,0.00,,,0.01,WUHU216DAVISVP2,2013-06-29 17:43:00,
2013-06-29 14:00:00,71.4,66.0,29.60,WNW,290,2.0,8.0,83,0.00,,,0.01,WUHU216DAVISVP2,2013-06-29 18:00:00,
2013-06-29 14:05:00,71.1,66.1,29.60,NNW,333,2.0,8.0,84,0.00,,,0.01,WUHU216DAVISVP2,2013-06-29 18:05:00,
2013-06-29 14:22:00,70.7,66.0,29.60,NW,325,7.0,11.0,85,0.00,,,0.01,WUHU216DAVISVP2,2013-06-29 18:22:00,
2013-06-29 14:27:00,70.7,66.0,29.60,NW,318,2.0,11.0,85,0.00,,,0.01,WUHU216DAVISVP2,2013-06-29 18:27:00,
2013-06-29 14:44:00,71.3,66.3,29.60,WNW,293,4.0,10.0,84,0.00,,,0.01,WUHU216DAVISVP2,2013-06-29 18:44:00,
2013-06-29 14:49:00,71.4,66.0,29.60,West,281,4.0,8.0,83,0.00,,,0.01,WUHU216DAVISVP2,2013-06-29 18:49:00,
2013-06-29 15:06:00,72.4,66.3,29.60,NNE,20,4.0,6.0,81,0.00,,,0.01,WUHU216DAVISVP2,2013-06-29 19:06:00,
2013-06-29 15:11:00,72.9,66.8,29.60,NNE,20,2.0,6.0,81,0.00,,,0.01,WUHU216DAVISVP2,2013-06-29 19:11:00,
2013-06-29 15:28:00,72.9,65.8,29.60,WNW,296,0.0,6.0,78,0.00,,,0.01,WUHU216DAVISVP2,2013-06-29 19:28:00,
2013-06-29 15:33:00,72.9,65.8,29.61,WNW,297,2.0,5.0,78,0.00,,,0.01,WUHU216DAVISVP2,2013-06-29 19:33:00,
2013-06-29 15:50:00,73.1,65.9,29.61,North,5,0.0,5.0,78,0.00,,,0.01,WUHU216DAVISVP2,2013-06-29 19:50:00,
2013-06-29 15:55:00,73.2,65.7,29.61,North,5,0.0,4.0,77,0.00,,,0.01,WUHU216DAVISVP2,2013-06-29 19:55:00,
2013-06-29 16:00:00,73.5,66.0,29.61,ENE,57,1.0,4.0,77,0.00,,,0.01,WUHU216DAVISVP2,2013-06-29 20:00:00,
2013-06-29 16:12:00,73.2,66.0,29.61,ENE,71,1.0,4.0,78,0.00,,,0.01,WUHU216DAVISVP2,2013-06-29 20:12:00,
2013-06-29 16:17:00,73.4,66.2,29.61,ESE,110,0.0,4.0,78,0.00,,,0.01,WUHU216DAVISVP2,2013-06-29 20:17:00,
2013-06-29 16:22:00,73.6,65.7,29.60,ENE,72,0.0,4.0,76,0.00,,,0.01,WUHU216DAVISVP2,2013-06-29 20:22:00,
2013-06-29 16:34:00,74.2,66.3,29.60,ENE,71,1.0,4.0,76,0.00,,,0.01,WUHU216DAVISVP2,2013-06-29 20:34:00,
2013-06-29 16:39:00,74.0,66.1,29.60,ENE,58,2.0,4.0,76,0.00,,,0.01,WUHU216DAVISVP2,2013-06-29 20:39:00,
2013-06-29 16:56:00,74.1,66.2,29.61,NE,56,0.0,4.0,76,0.00,,,0.01,WUHU216DAVISVP2,2013-06-29 20:56:00,
2013-06-29 17:01:00,74.5,66.6,29.61,ESE,106,2.0,4.0,76,0.00,,,0.01,WUHU216DAVISVP2,2013-06-29 21:01:00,
2013-06-29 17:17:00,73.4,65.9,29.61,ESE,108,2.0,9.0,77,0.00,,,0.01,WUHU216DAVISVP2,2013-06-29 21:17:00,
2013-06-29 17:22:00,72.9,66.1,29.61,NE,54,5.0,9.0,79,0.00,,,0.01,WUHU216DAVISVP2,2013-06-29 21:22:00,
2013-06-29 17:27:00,72.8,66.0,29.61,SE,138,0.0,8.0,79,0.00,,,0.01,WUHU216DAVISVP2,2013-06-29 21:27:00,
2013-06-29 17:39:00,73.2,64.9,29.62,ENE,75,2.0,5.0,75,0.00,,,0.01,WUHU216DAVISVP2,2013-06-29 21:39:00,
2013-06-29 17:44:00,73.1,64.1,29.62,NE,37,1.0,4.0,73,0.00,,,0.01,WUHU216DAVISVP2,2013-06-29 21:44:00,
2013-06-29 18:01:00,70.1,63.4,29.62,North,4,4.0,8.0,79,0.00,,,0.01,WUHU216DAVISVP2,2013-06-29 22:01:00,
2013-06-29 18:06:00,69.8,63.1,29.62,North,356,1.0,8.0,79,0.00,,,0.01,WUHU216DAVISVP2,2013-06-29 22:06:00,
2013-06-29 18:11:00,69.7,63.3,29.62,NNW,341,5.0,8.0,80,0.00,,,0.01,WUHU216DAVISVP2,2013-06-29 22:11:00,
2013-06-29 18:23:00,69.0,63.0,29.62,NNW,341,6.0,10.0,81,0.00,,,0.01,WUHU216DAVISVP2,2013-06-29 22:23:00,
2013-06-29 18:28:00,68.7,62.0,29.63,NW,311,4.0,11.0,79,0.00,,,0.01,WUHU216DAVISVP2,2013-06-29 22:28:00,
2013-06-29 18:45:00,68.4,64.1,29.63,NW,315,6.0,13.0,86,0.00,,,0.01,WUHU216DAVISVP2,2013-06-29 22:45:00,
2013-06-29 18:50:00,68.4,64.0,29.64,NNE,12,4.0,12.0,86,0.00,,,0.01,WUHU216DAVISVP2,2013-06-29 22:50:00,
2013-06-29 19:07:00,68.4,64.7,29.64,NW,319,2.0,11.0,88,0.00,,,0.01,WUHU216DAVISVP2,2013-06-29 23:07:00,
2013-06-29 19:12:00,68.3,64.6,29.64,NW,325,9.0,11.0,88,0.00,,,0.01,WUHU216DAVISVP2,2013-06-29 23:12:00,
2013-06-29 19:29:00,68.1,64.4,29.64,NNW,343,3.0,10.0,88,0.00,,,0.01,WUHU216DAVISVP2,2013-06-29 23:29:00,
2013-06-29 19:34:00,68.1,64.4,29.64,NNW,333,2.0,10.0,88,0.00,,,0.01,WUHU216DAVISVP2,2013-06-29 23:34:00,
2013-06-29 19:51:00,68.1,64.7,29.65,North,359,5.0,7.0,89,0.00,,,0.01,WUHU216DAVISVP2,2013-06-29 23:51:00,
2013-06-29 19:56:00,68.0,64.6,29.65,North,8,5.0,8.0,89,0.00,,,0.01,WUHU216DAVISVP2,2013-06-29 23:56:00,
2013-06-29 20:01:00,67.9,64.5,29.65,North,350,4.0,8.0,89,0.00,,,0.01,WUHU216DAVISVP2,2013-06-30 00:01:00,
2013-06-29 20:13:00,67.4,64.3,29.65,North,349,5.0,11.0,90,0.00,,,0.01,WUHU216DAVISVP2,2013-06-30 00:13:00,
2013-06-29 20:18:00,67.3,64.2,29.65,NNW,342,4.0,11.0,90,0.00,,,0.01,WUHU216DAVISVP2,2013-06-30 00:18:00,
2013-06-29 20:23:00,67.1,64.0,29.65,NW,325,2.0,9.0,90,0.00,,,0.01,WUHU216DAVISVP2,2013-06-30 00:23:00,
2013-06-29 20:35:00,66.9,64.2,29.66,NNW,330,1.0,7.0,91,0.00,,,0.01,WUHU216DAVISVP2,2013-06-30 00:35:00,
2013-06-29 20:40:00,66.9,64.2,29.66,NNW,336,3.0,6.0,91,0.00,,,0.01,WUHU216DAVISVP2,2013-06-30 00:40:00,
2013-06-29 20:45:00,66.8,64.1,29.66,NW,325,3.0,6.0,91,0.00,,,0.01,WUHU216DAVISVP2,2013-06-30 00:45:00,
2013-06-29 20:57:00,66.5,64.1,29.67,NNE,15,3.0,7.0,92,0.00,,,0.01,WUHU216DAVISVP2,2013-06-30 00:57:00,
2013-06-29 21:02:00,66.4,64.0,29.67,NNW,330,3.0,7.0,92,0.00,,,0.01,WUHU216DAVISVP2,2013-06-30 01:02:00,
2013-06-29 21:18:00,66.2,64.1,29.68,NNW,347,3.0,5.0,93,0.00,,,0.01,WUHU216DAVISVP2,2013-06-30 01:18:00,
2013-06-29 21:23:00,66.1,64.0,29.68,North,353,6.0,9.0,93,0.00,,,0.01,WUHU216DAVISVP2,2013-06-30 01:23:00,
2013-06-29 21:28:00,66.0,63.9,29.68,North,352,4.0,9.0,93,0.00,,,0.01,WUHU216DAVISVP2,2013-06-30 01:28:00,
2013-06-29 21:40:00,65.8,63.7,29.68,North,8,4.0,9.0,93,0.00,,,0.01,WUHU216DAVISVP2,2013-06-30 01:40:00,
2013-06-29 21:45:00,65.8,63.7,29.68,NNE,12,2.0,8.0,93,0.00,,,0.01,WUHU216DAVISVP2,2013-06-30 01:45:00,
2013-06-29 22:02:00,65.4,63.6,29.68,NNW,338,1.0,6.0,94,0.00,,,0.01,WUHU216DAVISVP2,2013-06-30 02:02:00,
2013-06-29 22:07:00,65.3,63.5,29.68,NNE,24,2.0,5.0,94,0.00,,,0.01,WUHU216DAVISVP2,2013-06-30 02:07:00,
2013-06-29 22:12:00,65.2,63.4,29.68,North,5,2.0,5.0,94,0.00,,,0.01,WUHU216DAVISVP2,2013-06-30 02:12:00,
2013-06-29 22:24:00,65.1,63.6,29.69,NNE,25,4.0,5.0,95,0.00,,,0.01,WUHU216DAVISVP2,2013-06-30 02:24:00,
2013-06-29 22:29:00,65.1,63.6,29.69,North,6,2.0,6.0,95,0.00,,,0.01,WUHU216DAVISVP2,2013-06-30 02:29:00,
2013-06-29 22:34:00,65.0,63.2,29.69,NE,34,4.0,7.0,94,0.00,,,0.01,WUHU216DAVISVP2,2013-06-30 02:34:00,
2013-06-29 22:46:00,64.9,63.4,29.70,NNE,20,3.0,6.0,95,0.00,,,0.01,WUHU216DAVISVP2,2013-06-30 02:46:00,
2013-06-29 22:51:00,64.9,63.4,29.70,NNE,25,3.0,6.0,95,0.00,,,0.01,WUHU216DAVISVP2,2013-06-30 02:51:00,
2013-06-29 23:08:00,64.8,63.3,29.70,NNE,25,3.0,9.0,95,0.00,,,0.01,WUHU216DAVISVP2,2013-06-30 03:08:00,
2013-06-29 23:13:00,64.7,63.2,29.70,NE,46,4.0,8.0,95,0.00,,,0.01,WUHU216DAVISVP2,2013-06-30 03:13:00,
2013-06-29 23:18:00,64.7,63.2,29.70,NE,40,5.0,8.0,95,0.00,,,0.01,WUHU216DAVISVP2,2013-06-30 03:18:00,
2013-06-29 23:30:00,64.7,63.2,29.70,NNE,20,6.0,7.0,95,0.00,,,0.01,WUHU216DAVISVP2,2013-06-30 03:30:00,
2013-06-29 23:35:00,64.7,63.5,29.70,NNE,16,3.0,7.0,96,0.00,,,0.01,WUHU216DAVISVP2,2013-06-30 03:35:00,
2013-06-29 23:40:00,64.7,63.5,29.70,NE,41,6.0,9.0,96,0.00,,,0.01,WUHU216DAVISVP2,2013-06-30 03:40:00,
2013-06-29 23:52:00,64.6,63.4,29.70,NNE,18,5.0,8.0,96,0.00,,,0.01,WUHU216DAVISVP2,2013-06-30 03:52:00,
2013-06-29 23:57:00,64.5,63.3,29.70,NE,41,4.0,7.0,96,0.00,,,0.01,WUHU216DAVISVP2,2013-06-30 03:57:00,